sensor_id;sensor_type;location;lat;lon;timestamp;temperature;humidity
45765;DHT22;31474;45.332;10.230;2023-08-24T00:00:08;29.10;99.80
45765;DHT22;31474;45.332;10.230;2023-08-24T00:02:33;29.10;99.80
45765;DHT22;31474;45.332;10.230;2023-08-24T00:04:59;29.10;99.90
45765;DHT22;31474;45.332;10.230;2023-08-24T00:07:26;29.00;99.90
45765;DHT22;31474;45.332;10.230;2023-08-24T00:09:53;29.10;99.80
45765;DHT22;31474;45.332;10.230;2023-08-24T00:12:18;29.10;99.70
45765;DHT22;31474;45.332;10.230;2023-08-24T00:14:44;29.10;99.70
45765;DHT22;31474;45.332;10.230;2023-08-24T00:17:10;29.10;99.50
45765;DHT22;31474;45.332;10.230;2023-08-24T00:19:36;29.10;99.80
45765;DHT22;31474;45.332;10.230;2023-08-24T00:22:02;29.10;99.50
45765;DHT22;31474;45.332;10.230;2023-08-24T00:24:27;29.00;99.50
45765;DHT22;31474;45.332;10.230;2023-08-24T00:26:53;29.00;99.90
45765;DHT22;31474;45.332;10.230;2023-08-24T00:29:19;29.00;99.60
45765;DHT22;31474;45.332;10.230;2023-08-24T00:31:44;28.90;99.80
45765;DHT22;31474;45.332;10.230;2023-08-24T00:34:10;28.90;99.70
45765;DHT22;31474;45.332;10.230;2023-08-24T00:36:35;28.90;99.70
45765;DHT22;31474;45.332;10.230;2023-08-24T00:39:01;28.90;99.50
45765;DHT22;31474;45.332;10.230;2023-08-24T00:41:27;29.00;99.50
45765;DHT22;31474;45.332;10.230;2023-08-24T00:43:52;29.00;99.50
45765;DHT22;31474;45.332;10.230;2023-08-24T00:46:19;29.00;99.40
45765;DHT22;31474;45.332;10.230;2023-08-24T00:48:45;29.00;99.70
45765;DHT22;31474;45.332;10.230;2023-08-24T00:51:11;28.90;99.50
45765;DHT22;31474;45.332;10.230;2023-08-24T00:53:37;28.90;99.50
45765;DHT22;31474;45.332;10.230;2023-08-24T00:56:03;28.90;99.60
45765;DHT22;31474;45.332;10.230;2023-08-24T00:58:29;28.80;99.50
45765;DHT22;31474;45.332;10.230;2023-08-24T01:00:57;28.90;99.70
45765;DHT22;31474;45.332;10.230;2023-08-24T01:03:23;28.90;99.40
45765;DHT22;31474;45.332;10.230;2023-08-24T01:05:49;28.90;99.40
45765;DHT22;31474;45.332;10.230;2023-08-24T01:08:16;29.00;99.30
45765;DHT22;31474;45.332;10.230;2023-08-24T01:10:59;29.10;99.20
45765;DHT22;31474;45.332;10.230;2023-08-24T01:13:35;29.10;99.40
45765;DHT22;31474;45.332;10.230;2023-08-24T01:16:16;29.10;99.50
45765;DHT22;31474;45.332;10.230;2023-08-24T01:18:42;28.90;99.70
45765;DHT22;31474;45.332;10.230;2023-08-24T01:21:09;28.90;99.30
45765;DHT22;31474;45.332;10.230;2023-08-24T01:23:54;28.90;99.30
45765;DHT22;31474;45.332;10.230;2023-08-24T01:26:22;28.90;99.30
45765;DHT22;31474;45.332;10.230;2023-08-24T01:28:48;28.80;99.20
45765;DHT22;31474;45.332;10.230;2023-08-24T01:31:14;28.70;99.40
45765;DHT22;31474;45.332;10.230;2023-08-24T01:33:44;28.70;99.60
45765;DHT22;31474;45.332;10.230;2023-08-24T01:36:12;28.60;99.70
45765;DHT22;31474;45.332;10.230;2023-08-24T01:38:38;28.50;99.80
45765;DHT22;31474;45.332;10.230;2023-08-24T01:41:24;28.40;99.80
45765;DHT22;31474;45.332;10.230;2023-08-24T01:43:53;28.40;99.90
45765;DHT22;31474;45.332;10.230;2023-08-24T01:46:21;28.40;99.90
45765;DHT22;31474;45.332;10.230;2023-08-24T01:48:48;28.40;99.90
45765;DHT22;31474;45.332;10.230;2023-08-24T01:51:15;28.30;99.90
45765;DHT22;31474;45.332;10.230;2023-08-24T01:53:41;28.30;99.90
45765;DHT22;31474;45.332;10.230;2023-08-24T01:56:11;28.40;99.90
45765;DHT22;31474;45.332;10.230;2023-08-24T01:58:37;28.30;99.90
45765;DHT22;31474;45.332;10.230;2023-08-24T02:01:07;28.40;99.90
45765;DHT22;31474;45.332;10.230;2023-08-24T02:03:33;28.40;99.90
45765;DHT22;31474;45.332;10.230;2023-08-24T02:05:58;28.40;99.90
45765;DHT22;31474;45.332;10.230;2023-08-24T02:08:24;28.40;99.90
45765;DHT22;31474;45.332;10.230;2023-08-24T02:10:50;28.40;99.90
45765;DHT22;31474;45.332;10.230;2023-08-24T02:13:16;28.50;99.90
45765;DHT22;31474;45.332;10.230;2023-08-24T02:15:42;28.50;99.90
45765;DHT22;31474;45.332;10.230;2023-08-24T02:18:07;28.60;99.90
45765;DHT22;31474;45.332;10.230;2023-08-24T02:20:39;28.60;99.80
45765;DHT22;31474;45.332;10.230;2023-08-24T02:23:05;28.60;99.90
45765;DHT22;31474;45.332;10.230;2023-08-24T02:25:31;28.60;99.80
45765;DHT22;31474;45.332;10.230;2023-08-24T02:27:56;28.70;99.80
45765;DHT22;31474;45.332;10.230;2023-08-24T02:30:22;28.70;99.70
45765;DHT22;31474;45.332;10.230;2023-08-24T02:32:48;28.70;99.70
45765;DHT22;31474;45.332;10.230;2023-08-24T02:35:13;28.80;99.70
45765;DHT22;31474;45.332;10.230;2023-08-24T02:37:39;28.70;99.80
45765;DHT22;31474;45.332;10.230;2023-08-24T02:40:05;28.70;99.60
45765;DHT22;31474;45.332;10.230;2023-08-24T02:42:32;28.70;99.70
45765;DHT22;31474;45.332;10.230;2023-08-24T02:44:58;28.70;99.60
45765;DHT22;31474;45.332;10.230;2023-08-24T02:47:24;28.70;99.70
45765;DHT22;31474;45.332;10.230;2023-08-24T02:49:50;28.70;99.60
45765;DHT22;31474;45.332;10.230;2023-08-24T02:52:16;28.70;99.70
45765;DHT22;31474;45.332;10.230;2023-08-24T02:54:42;28.70;99.70
45765;DHT22;31474;45.332;10.230;2023-08-24T02:57:07;28.70;99.80
45765;DHT22;31474;45.332;10.230;2023-08-24T02:59:33;28.60;99.70
45765;DHT22;31474;45.332;10.230;2023-08-24T03:01:59;28.60;99.70
45765;DHT22;31474;45.332;10.230;2023-08-24T03:04:24;28.60;99.70
45765;DHT22;31474;45.332;10.230;2023-08-24T03:06:50;28.60;99.80
45765;DHT22;31474;45.332;10.230;2023-08-24T03:09:16;28.70;99.80
45765;DHT22;31474;45.332;10.230;2023-08-24T03:11:41;28.60;99.70
45765;DHT22;31474;45.332;10.230;2023-08-24T03:14:07;28.60;99.70
45765;DHT22;31474;45.332;10.230;2023-08-24T03:16:34;28.60;99.70
45765;DHT22;31474;45.332;10.230;2023-08-24T03:19:00;28.60;99.80
45765;DHT22;31474;45.332;10.230;2023-08-24T03:21:25;28.60;99.80
45765;DHT22;31474;45.332;10.230;2023-08-24T03:23:51;28.60;99.70
45765;DHT22;31474;45.332;10.230;2023-08-24T03:26:17;28.60;99.80
45765;DHT22;31474;45.332;10.230;2023-08-24T03:28:45;28.50;99.70
45765;DHT22;31474;45.332;10.230;2023-08-24T03:31:11;28.40;99.70
45765;DHT22;31474;45.332;10.230;2023-08-24T03:33:37;28.40;99.80
45765;DHT22;31474;45.332;10.230;2023-08-24T03:36:03;28.30;99.80
45765;DHT22;31474;45.332;10.230;2023-08-24T03:38:28;28.30;99.80
45765;DHT22;31474;45.332;10.230;2023-08-24T03:41:03;28.30;99.80
45765;DHT22;31474;45.332;10.230;2023-08-24T03:43:32;28.20;99.90
45765;DHT22;31474;45.332;10.230;2023-08-24T03:45:58;28.20;99.90
45765;DHT22;31474;45.332;10.230;2023-08-24T03:48:24;28.20;99.90
45765;DHT22;31474;45.332;10.230;2023-08-24T03:50:53;28.10;99.80
45765;DHT22;31474;45.332;10.230;2023-08-24T03:53:19;28.20;99.80
45765;DHT22;31474;45.332;10.230;2023-08-24T03:55:47;28.20;99.70
45765;DHT22;31474;45.332;10.230;2023-08-24T03:58:14;28.20;99.80
45765;DHT22;31474;45.332;10.230;2023-08-24T04:00:40;28.20;99.70
45765;DHT22;31474;45.332;10.230;2023-08-24T04:03:07;28.30;99.70
45765;DHT22;31474;45.332;10.230;2023-08-24T04:05:33;28.30;99.60
45765;DHT22;31474;45.332;10.230;2023-08-24T04:07:58;28.40;99.60
45765;DHT22;31474;45.332;10.230;2023-08-24T04:10:26;28.40;99.60
45765;DHT22;31474;45.332;10.230;2023-08-24T04:12:52;28.40;99.50
45765;DHT22;31474;45.332;10.230;2023-08-24T04:15:18;28.40;99.50
45765;DHT22;31474;45.332;10.230;2023-08-24T04:17:44;28.40;99.40
45765;DHT22;31474;45.332;10.230;2023-08-24T04:20:10;28.50;99.60
45765;DHT22;31474;45.332;10.230;2023-08-24T04:22:36;28.50;99.60
45765;DHT22;31474;45.332;10.230;2023-08-24T04:25:02;28.50;99.70
45765;DHT22;31474;45.332;10.230;2023-08-24T04:27:28;28.50;99.60
45765;DHT22;31474;45.332;10.230;2023-08-24T04:29:54;28.40;99.60
45765;DHT22;31474;45.332;10.230;2023-08-24T04:32:19;28.50;99.70
45765;DHT22;31474;45.332;10.230;2023-08-24T04:34:45;28.50;99.80
45765;DHT22;31474;45.332;10.230;2023-08-24T04:37:10;28.50;99.80
45765;DHT22;31474;45.332;10.230;2023-08-24T04:39:36;28.50;99.70
45765;DHT22;31474;45.332;10.230;2023-08-24T04:42:04;28.40;99.70
45765;DHT22;31474;45.332;10.230;2023-08-24T04:44:31;28.40;99.80
45765;DHT22;31474;45.332;10.230;2023-08-24T04:46:57;28.30;99.80
45765;DHT22;31474;45.332;10.230;2023-08-24T04:49:23;28.30;99.90
45765;DHT22;31474;45.332;10.230;2023-08-24T04:51:48;28.20;99.90
45765;DHT22;31474;45.332;10.230;2023-08-24T04:54:14;28.20;99.90
45765;DHT22;31474;45.332;10.230;2023-08-24T04:56:40;28.20;99.90
45765;DHT22;31474;45.332;10.230;2023-08-24T04:59:05;28.20;99.90
45765;DHT22;31474;45.332;10.230;2023-08-24T05:01:33;28.30;99.90
45765;DHT22;31474;45.332;10.230;2023-08-24T05:03:59;28.30;99.90
45765;DHT22;31474;45.332;10.230;2023-08-24T05:06:25;28.30;99.90
45765;DHT22;31474;45.332;10.230;2023-08-24T05:08:50;28.30;99.90
45765;DHT22;31474;45.332;10.230;2023-08-24T05:11:22;28.30;99.90
45765;DHT22;31474;45.332;10.230;2023-08-24T05:13:48;28.40;99.90
45765;DHT22;31474;45.332;10.230;2023-08-24T05:16:14;28.40;99.90
45765;DHT22;31474;45.332;10.230;2023-08-24T05:18:39;28.50;99.90
45765;DHT22;31474;45.332;10.230;2023-08-24T05:21:05;28.50;99.90
45765;DHT22;31474;45.332;10.230;2023-08-24T05:23:32;28.50;99.90
45765;DHT22;31474;45.332;10.230;2023-08-24T05:25:59;28.50;99.90
45765;DHT22;31474;45.332;10.230;2023-08-24T05:28:26;28.50;99.90
45765;DHT22;31474;45.332;10.230;2023-08-24T05:30:52;28.50;99.90
45765;DHT22;31474;45.332;10.230;2023-08-24T05:33:20;28.50;99.90
45765;DHT22;31474;45.332;10.230;2023-08-24T05:35:46;28.60;99.90
45765;DHT22;31474;45.332;10.230;2023-08-24T05:38:13;28.60;99.90
45765;DHT22;31474;45.332;10.230;2023-08-24T05:40:39;28.60;99.90
45765;DHT22;31474;45.332;10.230;2023-08-24T05:43:05;28.60;99.90
45765;DHT22;31474;45.332;10.230;2023-08-24T05:45:31;28.70;99.90
45765;DHT22;31474;45.332;10.230;2023-08-24T05:47:57;28.80;99.90
45765;DHT22;31474;45.332;10.230;2023-08-24T05:50:22;28.80;99.90
45765;DHT22;31474;45.332;10.230;2023-08-24T05:52:48;28.90;99.90
45765;DHT22;31474;45.332;10.230;2023-08-24T05:55:14;29.00;99.90
45765;DHT22;31474;45.332;10.230;2023-08-24T05:57:39;29.10;99.90
45765;DHT22;31474;45.332;10.230;2023-08-24T06:00:05;29.20;99.90
45765;DHT22;31474;45.332;10.230;2023-08-24T06:02:36;29.30;99.90
45765;DHT22;31474;45.332;10.230;2023-08-24T06:05:02;29.30;99.80
45765;DHT22;31474;45.332;10.230;2023-08-24T06:07:29;29.40;99.90
45765;DHT22;31474;45.332;10.230;2023-08-24T06:09:56;29.50;99.90
45765;DHT22;31474;45.332;10.230;2023-08-24T06:12:22;29.60;99.90
45765;DHT22;31474;45.332;10.230;2023-08-24T06:14:47;29.70;99.90
45765;DHT22;31474;45.332;10.230;2023-08-24T06:17:13;29.80;99.80
45765;DHT22;31474;45.332;10.230;2023-08-24T06:19:38;29.90;99.90
45765;DHT22;31474;45.332;10.230;2023-08-24T06:22:04;30.00;99.90
45765;DHT22;31474;45.332;10.230;2023-08-24T06:24:30;30.10;99.90
45765;DHT22;31474;45.332;10.230;2023-08-24T06:26:56;30.20;99.90
45765;DHT22;31474;45.332;10.230;2023-08-24T06:29:21;30.30;99.70
45765;DHT22;31474;45.332;10.230;2023-08-24T06:31:47;30.40;99.90
45765;DHT22;31474;45.332;10.230;2023-08-24T06:34:13;30.50;99.70
45765;DHT22;31474;45.332;10.230;2023-08-24T06:36:38;30.40;99.70
45765;DHT22;31474;45.332;10.230;2023-08-24T06:39:04;30.50;99.50
45765;DHT22;31474;45.332;10.230;2023-08-24T06:41:36;30.50;99.30
45765;DHT22;31474;45.332;10.230;2023-08-24T06:44:02;30.50;98.90
45765;DHT22;31474;45.332;10.230;2023-08-24T06:46:28;30.60;99.00
45765;DHT22;31474;45.332;10.230;2023-08-24T06:48:54;30.70;98.80
45765;DHT22;31474;45.332;10.230;2023-08-24T06:51:20;30.90;99.40
45765;DHT22;31474;45.332;10.230;2023-08-24T06:53:45;31.00;99.20
45765;DHT22;31474;45.332;10.230;2023-08-24T06:56:13;31.10;99.10
45765;DHT22;31474;45.332;10.230;2023-08-24T06:58:40;31.20;98.90
45765;DHT22;31474;45.332;10.230;2023-08-24T07:01:06;31.30;98.60
45765;DHT22;31474;45.332;10.230;2023-08-24T07:03:32;31.40;98.80
45765;DHT22;31474;45.332;10.230;2023-08-24T07:05:59;31.50;98.40
45765;DHT22;31474;45.332;10.230;2023-08-24T07:08:24;31.60;98.20
45765;DHT22;31474;45.332;10.230;2023-08-24T07:10:50;31.80;98.40
45765;DHT22;31474;45.332;10.230;2023-08-24T07:13:16;31.80;98.10
45765;DHT22;31474;45.332;10.230;2023-08-24T07:15:42;31.80;97.80
45765;DHT22;31474;45.332;10.230;2023-08-24T07:18:08;31.90;97.50
45765;DHT22;31474;45.332;10.230;2023-08-24T07:20:35;32.00;97.30
45765;DHT22;31474;45.332;10.230;2023-08-24T07:23:00;32.00;97.10
45765;DHT22;31474;45.332;10.230;2023-08-24T07:25:26;32.20;97.30
45765;DHT22;31474;45.332;10.230;2023-08-24T07:27:56;32.20;97.00
45765;DHT22;31474;45.332;10.230;2023-08-24T07:30:25;32.20;96.90
45765;DHT22;31474;45.332;10.230;2023-08-24T07:32:51;32.20;97.20
45765;DHT22;31474;45.332;10.230;2023-08-24T07:35:17;32.30;97.10
45765;DHT22;31474;45.332;10.230;2023-08-24T07:37:43;32.40;97.30
45765;DHT22;31474;45.332;10.230;2023-08-24T07:40:09;32.50;97.10
45765;DHT22;31474;45.332;10.230;2023-08-24T07:42:51;32.60;96.90
45765;DHT22;31474;45.332;10.230;2023-08-24T07:45:20;32.70;96.80
45765;DHT22;31474;45.332;10.230;2023-08-24T07:47:45;32.80;96.60
45765;DHT22;31474;45.332;10.230;2023-08-24T07:50:11;32.80;96.90
45765;DHT22;31474;45.332;10.230;2023-08-24T07:52:40;33.00;96.60
45765;DHT22;31474;45.332;10.230;2023-08-24T07:55:07;33.10;95.70
45765;DHT22;31474;45.332;10.230;2023-08-24T07:57:34;33.20;96.20
45765;DHT22;31474;45.332;10.230;2023-08-24T08:00:00;33.40;95.90
45765;DHT22;31474;45.332;10.230;2023-08-24T08:02:25;33.40;95.00
45765;DHT22;31474;45.332;10.230;2023-08-24T08:04:55;33.30;95.00
45765;DHT22;31474;45.332;10.230;2023-08-24T08:07:22;33.40;95.00
45765;DHT22;31474;45.332;10.230;2023-08-24T08:09:48;33.30;94.40
45765;DHT22;31474;45.332;10.230;2023-08-24T08:12:14;33.40;94.50
45765;DHT22;31474;45.332;10.230;2023-08-24T08:14:40;33.40;94.90
45765;DHT22;31474;45.332;10.230;2023-08-24T08:17:05;33.40;94.80
45765;DHT22;31474;45.332;10.230;2023-08-24T08:19:31;33.60;94.70
45765;DHT22;31474;45.332;10.230;2023-08-24T08:21:57;33.60;94.60
45765;DHT22;31474;45.332;10.230;2023-08-24T08:24:23;33.70;94.20
45765;DHT22;31474;45.332;10.230;2023-08-24T08:26:49;33.70;94.30
45765;DHT22;31474;45.332;10.230;2023-08-24T08:29:14;33.90;94.00
45765;DHT22;31474;45.332;10.230;2023-08-24T08:31:40;34.00;93.90
45765;DHT22;31474;45.332;10.230;2023-08-24T08:34:06;34.00;94.10
45765;DHT22;31474;45.332;10.230;2023-08-24T08:36:32;33.90;94.10
45765;DHT22;31474;45.332;10.230;2023-08-24T08:38:58;33.90;94.20
45765;DHT22;31474;45.332;10.230;2023-08-24T08:41:27;34.00;94.20
45765;DHT22;31474;45.332;10.230;2023-08-24T08:43:53;34.00;94.00
45765;DHT22;31474;45.332;10.230;2023-08-24T08:46:18;34.00;93.50
45765;DHT22;31474;45.332;10.230;2023-08-24T08:48:45;34.00;93.70
45765;DHT22;31474;45.332;10.230;2023-08-24T08:51:13;34.20;93.90
45765;DHT22;31474;45.332;10.230;2023-08-24T08:53:40;34.30;93.90
45765;DHT22;31474;45.332;10.230;2023-08-24T08:56:07;34.40;92.60
45765;DHT22;31474;45.332;10.230;2023-08-24T08:58:33;34.30;93.40
45765;DHT22;31474;45.332;10.230;2023-08-24T09:01:02;34.30;92.80
45765;DHT22;31474;45.332;10.230;2023-08-24T09:03:31;34.20;93.20
45765;DHT22;31474;45.332;10.230;2023-08-24T09:05:57;34.40;93.50
45765;DHT22;31474;45.332;10.230;2023-08-24T09:08:25;34.30;93.30
45765;DHT22;31474;45.332;10.230;2023-08-24T09:10:51;34.40;93.30
45765;DHT22;31474;45.332;10.230;2023-08-24T09:13:17;34.70;93.60
45765;DHT22;31474;45.332;10.230;2023-08-24T09:15:43;34.70;93.10
45765;DHT22;31474;45.332;10.230;2023-08-24T09:18:09;34.60;92.90
45765;DHT22;31474;45.332;10.230;2023-08-24T09:20:34;34.70;92.70
45765;DHT22;31474;45.332;10.230;2023-08-24T09:23:00;34.70;93.40
45765;DHT22;31474;45.332;10.230;2023-08-24T09:25:26;34.70;93.20
45765;DHT22;31474;45.332;10.230;2023-08-24T09:27:59;34.70;92.70
45765;DHT22;31474;45.332;10.230;2023-08-24T09:30:32;34.70;92.80
45765;DHT22;31474;45.332;10.230;2023-08-24T09:33:03;35.00;93.30
45765;DHT22;31474;45.332;10.230;2023-08-24T09:35:34;35.00;93.10
45765;DHT22;31474;45.332;10.230;2023-08-24T09:38:19;35.00;93.10
45765;DHT22;31474;45.332;10.230;2023-08-24T09:40:45;35.00;92.20
45765;DHT22;31474;45.332;10.230;2023-08-24T09:43:16;35.00;92.50
45765;DHT22;31474;45.332;10.230;2023-08-24T09:45:55;35.00;92.50
45765;DHT22;31474;45.332;10.230;2023-08-24T09:48:21;35.10;91.40
45765;DHT22;31474;45.332;10.230;2023-08-24T09:50:51;35.00;91.40
45765;DHT22;31474;45.332;10.230;2023-08-24T09:53:19;35.10;92.30
45765;DHT22;31474;45.332;10.230;2023-08-24T09:55:58;35.10;91.40
45765;DHT22;31474;45.332;10.230;2023-08-24T09:58:24;35.20;91.50
45765;DHT22;31474;45.332;10.230;2023-08-24T10:00:51;35.30;92.20
45765;DHT22;31474;45.332;10.230;2023-08-24T10:03:21;35.40;91.90
45765;DHT22;31474;45.332;10.230;2023-08-24T10:05:50;35.30;91.20
45765;DHT22;31474;45.332;10.230;2023-08-24T10:08:21;35.20;91.00
45765;DHT22;31474;45.332;10.230;2023-08-24T10:10:52;35.40;92.30
45765;DHT22;31474;45.332;10.230;2023-08-24T10:13:39;35.50;91.20
45765;DHT22;31474;45.332;10.230;2023-08-24T10:16:07;35.60;92.20
45765;DHT22;31474;45.332;10.230;2023-08-24T10:18:33;35.80;92.10
45765;DHT22;31474;45.332;10.230;2023-08-24T10:21:00;35.90;92.70
45765;DHT22;31474;45.332;10.230;2023-08-24T10:23:29;35.90;91.40
45765;DHT22;31474;45.332;10.230;2023-08-24T10:25:56;35.80;91.20
45765;DHT22;31474;45.332;10.230;2023-08-24T10:28:23;35.60;91.70
45765;DHT22;31474;45.332;10.230;2023-08-24T10:30:51;35.70;91.90
45765;DHT22;31474;45.332;10.230;2023-08-24T10:33:18;35.80;92.40
45765;DHT22;31474;45.332;10.230;2023-08-24T10:35:44;35.90;92.20
45765;DHT22;31474;45.332;10.230;2023-08-24T10:38:29;35.90;91.80
45765;DHT22;31474;45.332;10.230;2023-08-24T10:41:04;35.90;88.80
45765;DHT22;31474;45.332;10.230;2023-08-24T10:43:37;35.90;90.20
45765;DHT22;31474;45.332;10.230;2023-08-24T10:46:04;35.80;90.10
45765;DHT22;31474;45.332;10.230;2023-08-24T10:48:31;35.70;90.40
45765;DHT22;31474;45.332;10.230;2023-08-24T10:53:53;35.90;90.60
45765;DHT22;31474;45.332;10.230;2023-08-24T10:56:20;35.90;90.80
45765;DHT22;31474;45.332;10.230;2023-08-24T10:58:47;35.80;90.80
45765;DHT22;31474;45.332;10.230;2023-08-24T11:01:19;35.80;91.20
45765;DHT22;31474;45.332;10.230;2023-08-24T11:03:54;35.90;88.90
45765;DHT22;31474;45.332;10.230;2023-08-24T11:06:24;35.90;88.90
45765;DHT22;31474;45.332;10.230;2023-08-24T11:09:08;35.90;87.90
45765;DHT22;31474;45.332;10.230;2023-08-24T11:11:40;35.90;85.00
45765;DHT22;31474;45.332;10.230;2023-08-24T11:14:23;36.00;87.90
45765;DHT22;31474;45.332;10.230;2023-08-24T11:16:51;36.00;83.80
45765;DHT22;31474;45.332;10.230;2023-08-24T11:19:17;36.00;87.60
45765;DHT22;31474;45.332;10.230;2023-08-24T11:21:45;36.10;88.40
45765;DHT22;31474;45.332;10.230;2023-08-24T11:24:16;36.10;86.60
45765;DHT22;31474;45.332;10.230;2023-08-24T11:26:49;36.10;86.90
45765;DHT22;31474;45.332;10.230;2023-08-24T11:29:15;36.30;87.10
45765;DHT22;31474;45.332;10.230;2023-08-24T11:31:41;36.20;87.50
45765;DHT22;31474;45.332;10.230;2023-08-24T11:34:07;36.10;87.30
45765;DHT22;31474;45.332;10.230;2023-08-24T11:36:48;36.10;87.50
45765;DHT22;31474;45.332;10.230;2023-08-24T11:39:21;36.10;85.00
45765;DHT22;31474;45.332;10.230;2023-08-24T11:42:02;36.10;86.80
45765;DHT22;31474;45.332;10.230;2023-08-24T11:44:29;36.10;82.50
45765;DHT22;31474;45.332;10.230;2023-08-24T11:46:58;36.10;86.50
45765;DHT22;31474;45.332;10.230;2023-08-24T11:49:24;36.30;87.20
45765;DHT22;31474;45.332;10.230;2023-08-24T11:51:51;36.30;86.60
45765;DHT22;31474;45.332;10.230;2023-08-24T11:54:20;36.30;85.20
45765;DHT22;31474;45.332;10.230;2023-08-24T11:56:46;36.30;84.60
45765;DHT22;31474;45.332;10.230;2023-08-24T11:59:16;36.20;84.90
45765;DHT22;31474;45.332;10.230;2023-08-24T12:01:42;36.30;84.00
45765;DHT22;31474;45.332;10.230;2023-08-24T12:04:08;36.30;84.70
45765;DHT22;31474;45.332;10.230;2023-08-24T12:06:34;36.40;85.80
45765;DHT22;31474;45.332;10.230;2023-08-24T12:08:59;36.40;86.00
45765;DHT22;31474;45.332;10.230;2023-08-24T12:11:26;36.50;85.90
45765;DHT22;31474;45.332;10.230;2023-08-24T12:13:55;36.50;85.70
45765;DHT22;31474;45.332;10.230;2023-08-24T12:16:22;36.50;84.70
45765;DHT22;31474;45.332;10.230;2023-08-24T12:18:55;36.60;85.70
45765;DHT22;31474;45.332;10.230;2023-08-24T12:21:22;36.50;83.70
45765;DHT22;31474;45.332;10.230;2023-08-24T12:26:27;36.60;83.60
45765;DHT22;31474;45.332;10.230;2023-08-24T12:28:55;36.70;86.20
45765;DHT22;31474;45.332;10.230;2023-08-24T12:31:20;36.80;84.90
45765;DHT22;31474;45.332;10.230;2023-08-24T12:34:05;36.80;85.60
45765;DHT22;31474;45.332;10.230;2023-08-24T12:36:36;36.80;84.90
45765;DHT22;31474;45.332;10.230;2023-08-24T12:39:03;36.70;83.30
45765;DHT22;31474;45.332;10.230;2023-08-24T12:41:30;36.70;84.80
45765;DHT22;31474;45.332;10.230;2023-08-24T12:43:56;36.60;86.00
45765;DHT22;31474;45.332;10.230;2023-08-24T12:46:22;36.70;86.60
45765;DHT22;31474;45.332;10.230;2023-08-24T12:48:47;36.70;85.90
45765;DHT22;31474;45.332;10.230;2023-08-24T12:51:13;36.70;85.40
45765;DHT22;31474;45.332;10.230;2023-08-24T12:53:39;36.70;85.10
45765;DHT22;31474;45.332;10.230;2023-08-24T12:56:04;36.70;84.30
45765;DHT22;31474;45.332;10.230;2023-08-24T12:58:30;36.70;83.60
45765;DHT22;31474;45.332;10.230;2023-08-24T13:00:56;36.60;82.60
45765;DHT22;31474;45.332;10.230;2023-08-24T13:03:22;36.50;82.80
45765;DHT22;31474;45.332;10.230;2023-08-24T13:05:48;36.60;84.20
45765;DHT22;31474;45.332;10.230;2023-08-24T13:08:14;36.70;85.30
45765;DHT22;31474;45.332;10.230;2023-08-24T13:10:39;36.80;85.30
45765;DHT22;31474;45.332;10.230;2023-08-24T13:13:05;36.90;84.50
45765;DHT22;31474;45.332;10.230;2023-08-24T13:15:31;36.80;84.70
45765;DHT22;31474;45.332;10.230;2023-08-24T13:17:56;36.90;83.60
45765;DHT22;31474;45.332;10.230;2023-08-24T13:20:23;36.90;83.00
45765;DHT22;31474;45.332;10.230;2023-08-24T13:22:49;36.90;82.70
45765;DHT22;31474;45.332;10.230;2023-08-24T13:25:14;36.90;84.00
45765;DHT22;31474;45.332;10.230;2023-08-24T13:27:40;36.90;83.50
45765;DHT22;31474;45.332;10.230;2023-08-24T13:30:06;37.00;83.70
45765;DHT22;31474;45.332;10.230;2023-08-24T13:32:33;36.90;83.10
45765;DHT22;31474;45.332;10.230;2023-08-24T13:34:59;37.00;83.10
45765;DHT22;31474;45.332;10.230;2023-08-24T13:37:25;37.00;81.80
45765;DHT22;31474;45.332;10.230;2023-08-24T13:39:51;37.00;82.50
45765;DHT22;31474;45.332;10.230;2023-08-24T13:42:17;36.90;81.40
45765;DHT22;31474;45.332;10.230;2023-08-24T13:44:44;37.00;83.50
45765;DHT22;31474;45.332;10.230;2023-08-24T13:47:09;37.00;83.20
45765;DHT22;31474;45.332;10.230;2023-08-24T13:49:35;37.10;82.80
45765;DHT22;31474;45.332;10.230;2023-08-24T13:52:01;37.10;82.40
45765;DHT22;31474;45.332;10.230;2023-08-24T13:54:27;37.10;81.00
45765;DHT22;31474;45.332;10.230;2023-08-24T13:56:52;37.00;81.10
45765;DHT22;31474;45.332;10.230;2023-08-24T13:59:20;36.90;81.20
45765;DHT22;31474;45.332;10.230;2023-08-24T14:01:46;36.90;81.40
45765;DHT22;31474;45.332;10.230;2023-08-24T14:04:12;36.90;81.40
45765;DHT22;31474;45.332;10.230;2023-08-24T14:06:37;36.90;81.90
45765;DHT22;31474;45.332;10.230;2023-08-24T14:09:04;36.90;81.30
45765;DHT22;31474;45.332;10.230;2023-08-24T14:11:30;36.90;81.40
45765;DHT22;31474;45.332;10.230;2023-08-24T14:13:56;37.00;81.40
45765;DHT22;31474;45.332;10.230;2023-08-24T14:16:22;37.00;81.20
45765;DHT22;31474;45.332;10.230;2023-08-24T14:18:48;37.00;81.30
45765;DHT22;31474;45.332;10.230;2023-08-24T14:21:15;37.00;80.90
45765;DHT22;31474;45.332;10.230;2023-08-24T14:23:41;37.00;81.90
45765;DHT22;31474;45.332;10.230;2023-08-24T14:26:07;37.00;82.30
45765;DHT22;31474;45.332;10.230;2023-08-24T14:28:56;37.00;81.90
45765;DHT22;31474;45.332;10.230;2023-08-24T14:31:24;36.90;79.10
45765;DHT22;31474;45.332;10.230;2023-08-24T14:33:51;36.90;81.40
45765;DHT22;31474;45.332;10.230;2023-08-24T14:36:17;36.90;81.60
45765;DHT22;31474;45.332;10.230;2023-08-24T14:38:43;36.90;82.10
45765;DHT22;31474;45.332;10.230;2023-08-24T14:41:09;36.90;81.50
45765;DHT22;31474;45.332;10.230;2023-08-24T14:43:35;36.90;81.30
45765;DHT22;31474;45.332;10.230;2023-08-24T14:46:01;36.90;81.00
45765;DHT22;31474;45.332;10.230;2023-08-24T14:48:28;36.90;81.30
45765;DHT22;31474;45.332;10.230;2023-08-24T14:50:54;36.90;82.00
45765;DHT22;31474;45.332;10.230;2023-08-24T14:53:19;36.80;81.30
45765;DHT22;31474;45.332;10.230;2023-08-24T14:55:45;36.80;80.90
45765;DHT22;31474;45.332;10.230;2023-08-24T14:58:11;36.60;80.80
45765;DHT22;31474;45.332;10.230;2023-08-24T15:00:36;36.60;80.70
45765;DHT22;31474;45.332;10.230;2023-08-24T15:03:02;36.60;82.10
45765;DHT22;31474;45.332;10.230;2023-08-24T15:05:28;36.50;82.10
45765;DHT22;31474;45.332;10.230;2023-08-24T15:07:54;36.60;82.40
45765;DHT22;31474;45.332;10.230;2023-08-24T15:10:20;36.50;81.60
45765;DHT22;31474;45.332;10.230;2023-08-24T15:12:46;36.50;82.00
45765;DHT22;31474;45.332;10.230;2023-08-24T15:15:12;36.50;81.40
45765;DHT22;31474;45.332;10.230;2023-08-24T15:17:43;36.50;82.20
45765;DHT22;31474;45.332;10.230;2023-08-24T15:20:10;36.50;83.00